createdAt,value
2019-03-16T00:01:08.000Z,28.1
2019-03-16T00:02:23.000Z,27.9
2019-03-16T00:03:23.000Z,27.9
2019-03-16T00:05:23.000Z,28
2019-03-16T00:06:23.000Z,28
2019-03-16T00:07:23.000Z,28.1
2019-03-16T00:09:23.000Z,28.1
2019-03-16T00:11:23.000Z,28.1
2019-03-16T00:13:23.000Z,28
2019-03-16T00:15:23.000Z,27.9
2019-03-16T00:16:23.000Z,27.9
2019-03-16T00:18:23.000Z,28
2019-03-16T00:20:08.000Z,28
2019-03-16T00:21:23.000Z,28
2019-03-16T00:22:23.000Z,28.1
2019-03-16T00:24:23.000Z,28.1
2019-03-16T00:25:23.000Z,28.2
2019-03-16T00:27:23.000Z,28.2
2019-03-16T00:28:23.000Z,28.3
2019-03-16T00:29:23.000Z,28.3
2019-03-16T00:31:23.000Z,28.3
2019-03-16T00:33:23.000Z,28.2
2019-03-16T00:35:23.000Z,28.2
2019-03-16T00:37:23.000Z,28.1
2019-03-16T00:38:23.000Z,28.1
2019-03-16T00:40:23.000Z,28.1
2019-03-16T00:41:23.000Z,28.1
2019-03-16T00:42:23.000Z,28.2
2019-03-16T00:44:23.000Z,28.2
2019-03-16T00:45:23.000Z,28.3
2019-03-16T00:47:23.000Z,28.3
2019-03-16T00:49:23.000Z,28.2
2019-03-16T00:50:23.000Z,28.2
2019-03-16T00:52:23.000Z,28.2
2019-03-16T00:53:23.000Z,28.2
2019-03-16T00:55:08.000Z,28.3
2019-03-16T00:56:23.000Z,28.2
2019-03-16T00:58:23.000Z,28.2
2019-03-16T01:00:23.000Z,28.2
2019-03-16T01:01:23.000Z,28.2
2019-03-16T01:03:23.000Z,28.2
2019-03-16T01:05:23.000Z,28.2
2019-03-16T01:07:23.000Z,28.2
2019-03-16T01:08:23.000Z,28.2
2019-03-16T01:10:23.000Z,28.2
2019-03-16T01:12:23.000Z,28.1
2019-03-16T01:14:23.000Z,28.1
2019-03-16T01:16:23.000Z,28.1
2019-03-16T01:17:23.000Z,28.1
2019-03-16T01:19:23.000Z,28.1
2019-03-16T01:20:23.000Z,28.2
2019-03-16T01:22:23.000Z,28.2
2019-03-16T01:24:23.000Z,28.1
2019-03-16T01:26:23.000Z,28
2019-03-16T01:28:23.000Z,28
2019-03-16T01:30:23.000Z,28
2019-03-16T01:32:23.000Z,28
2019-03-16T01:34:23.000Z,28
2019-03-16T01:35:23.000Z,28
2019-03-16T01:37:23.000Z,28
2019-03-16T01:39:23.000Z,28
2019-03-16T01:41:08.000Z,28
2019-03-16T01:42:23.000Z,27.9
2019-03-16T01:43:23.000Z,28
2019-03-16T01:45:23.000Z,28
2019-03-16T01:47:23.000Z,28
2019-03-16T01:49:23.000Z,28
2019-03-16T01:50:23.000Z,28
2019-03-16T01:51:23.000Z,28
2019-03-16T01:52:23.000Z,28.1
2019-03-16T01:53:23.000Z,28.2
2019-03-16T01:55:23.000Z,28.3
2019-03-16T01:57:23.000Z,28.3
2019-03-16T01:58:23.000Z,28.3
2019-03-16T02:00:23.000Z,28.2
2019-03-16T02:02:23.000Z,28.2
2019-03-16T02:04:23.000Z,28
2019-03-16T02:05:23.000Z,28
2019-03-16T02:07:23.000Z,28.1
2019-03-16T02:09:24.000Z,28.1
2019-03-16T02:11:24.000Z,27.9
2019-03-16T02:13:24.000Z,27.8
2019-03-16T02:15:24.000Z,27.8
2019-03-16T02:17:24.000Z,27.8
2019-03-16T02:18:24.000Z,27.8
2019-03-16T02:19:24.000Z,27.8
2019-03-16T02:20:24.000Z,27.9
2019-03-16T02:21:24.000Z,28
2019-03-16T02:23:24.000Z,28
2019-03-16T02:25:24.000Z,28
2019-03-16T02:27:09.000Z,28
2019-03-16T02:28:24.000Z,28
2019-03-16T02:29:24.000Z,28
2019-03-16T02:30:24.000Z,28
2019-03-16T02:32:24.000Z,28.1
2019-03-16T02:34:09.000Z,28.1
2019-03-16T02:35:09.000Z,28
2019-03-16T02:36:24.000Z,28
2019-03-16T02:38:24.000Z,28
2019-03-16T02:39:24.000Z,28
2019-03-16T02:40:24.000Z,28.1
2019-03-16T02:42:24.000Z,28.1
2019-03-16T02:43:24.000Z,28.1
2019-03-16T02:45:24.000Z,28.1
2019-03-16T02:47:24.000Z,28.1
2019-03-16T02:49:24.000Z,28
2019-03-16T02:51:24.000Z,28
2019-03-16T02:53:24.000Z,27.9
2019-03-16T02:54:24.000Z,27.9
2019-03-16T02:55:24.000Z,27.9
2019-03-16T02:57:24.000Z,28
2019-03-16T02:59:24.000Z,28
2019-03-16T03:01:24.000Z,28
2019-03-16T03:03:24.000Z,27.8
2019-03-16T03:05:24.000Z,27.6
2019-03-16T03:06:24.000Z,27.6
2019-03-16T03:08:24.000Z,27.7
2019-03-16T03:10:24.000Z,27.7
2019-03-16T03:12:23.000Z,27.7
2019-03-16T03:14:23.000Z,27.7
2019-03-16T03:15:23.000Z,27.7
2019-03-16T03:16:23.000Z,27.8
2019-03-16T03:18:23.000Z,27.8
2019-03-16T03:20:23.000Z,27.8
2019-03-16T03:22:23.000Z,27.7
2019-03-16T03:24:23.000Z,27.7
2019-03-16T03:26:23.000Z,27.6
2019-03-16T03:27:23.000Z,27.7
2019-03-16T03:28:23.000Z,27.7
2019-03-16T03:30:08.000Z,27.8
2019-03-16T03:31:23.000Z,27.8
2019-03-16T03:33:23.000Z,27.8
2019-03-16T03:35:23.000Z,27.8
2019-03-16T03:36:23.000Z,27.7
2019-03-16T03:37:23.000Z,27.7
2019-03-16T03:39:23.000Z,27.8
2019-03-16T03:41:23.000Z,27.8
2019-03-16T03:42:23.000Z,27.8
2019-03-16T03:44:23.000Z,27.9
2019-03-16T03:45:23.000Z,27.9
2019-03-16T03:46:23.000Z,28
2019-03-16T03:47:23.000Z,28.1
2019-03-16T03:49:24.000Z,28.1
2019-03-16T03:51:08.000Z,28.1
2019-03-16T03:52:23.000Z,28.1
2019-03-16T03:54:23.000Z,28
2019-03-16T03:55:23.000Z,28
2019-03-16T03:57:23.000Z,28
2019-03-16T03:59:23.000Z,28
2019-03-16T04:01:23.000Z,27.9
2019-03-16T04:02:23.000Z,27.9
2019-03-16T04:04:15.000Z,27.9
2019-03-16T04:05:23.000Z,27.8
2019-03-16T04:07:23.000Z,27.7
2019-03-16T04:08:23.000Z,27.8
2019-03-16T04:10:23.000Z,27.8
2019-03-16T04:12:23.000Z,27.9
2019-03-16T04:14:23.000Z,27.9
2019-03-16T04:15:23.000Z,27.9
2019-03-16T04:17:24.000Z,27.9
2019-03-16T04:19:09.000Z,27.9
2019-03-16T04:20:24.000Z,27.8
2019-03-16T04:22:24.000Z,27.8
2019-03-16T04:23:24.000Z,27.9
2019-03-16T04:25:24.000Z,27.8
2019-03-16T04:27:09.000Z,27.8
2019-03-16T04:28:24.000Z,27.6
2019-03-16T04:29:24.000Z,27.6
2019-03-16T04:30:24.000Z,27.7
2019-03-16T04:32:09.000Z,27.8
2019-03-16T04:33:24.000Z,27.8
2019-03-16T04:34:24.000Z,27.8
2019-03-16T04:36:24.000Z,27.8
2019-03-16T04:38:24.000Z,27.8
2019-03-16T04:39:24.000Z,27.8
2019-03-16T04:40:24.000Z,27.8
2019-03-16T04:42:24.000Z,27.9
2019-03-16T04:43:24.000Z,27.9
2019-03-16T04:45:24.000Z,27.8
2019-03-16T04:46:24.000Z,27.8
2019-03-16T04:47:24.000Z,27.9
2019-03-16T04:49:24.000Z,27.9
2019-03-16T04:51:24.000Z,27.9
2019-03-16T04:52:24.000Z,28
2019-03-16T04:53:24.000Z,28
2019-03-16T04:55:24.000Z,28
2019-03-16T04:57:24.000Z,27.9
2019-03-16T04:59:24.000Z,27.9
2019-03-16T05:00:24.000Z,27.9
2019-03-16T05:02:24.000Z,27.9
2019-03-16T05:04:24.000Z,27.8
2019-03-16T05:06:24.000Z,27.6
2019-03-16T05:08:09.000Z,27.6
2019-03-16T05:09:24.000Z,27.6
2019-03-16T05:11:09.000Z,27.7
2019-03-16T05:12:24.000Z,27.6
2019-03-16T05:14:09.000Z,27.7
2019-03-16T05:15:24.000Z,27.7
2019-03-16T05:17:09.000Z,27.7
2019-03-16T05:18:09.000Z,27.7
2019-03-16T05:19:24.000Z,27.7
2019-03-16T05:20:24.000Z,27.7
2019-03-16T05:22:24.000Z,27.8
2019-03-16T05:24:24.000Z,27.8
2019-03-16T05:26:24.000Z,27.8
2019-03-16T05:27:24.000Z,27.8
2019-03-16T05:29:24.000Z,27.8
2019-03-16T05:31:24.000Z,27.6
2019-03-16T05:33:24.000Z,27.5
2019-03-16T05:35:24.000Z,27.5
2019-03-16T05:37:24.000Z,27.5
2019-03-16T05:39:24.000Z,27.5
2019-03-16T05:40:24.000Z,27.5
2019-03-16T05:41:24.000Z,27.6
2019-03-16T05:43:24.000Z,27.6
2019-03-16T05:44:24.000Z,27.7
2019-03-16T05:46:24.000Z,27.7
2019-03-16T05:47:24.000Z,27.8
2019-03-16T05:49:09.000Z,27.8
2019-03-16T05:50:24.000Z,27.8
2019-03-16T05:52:24.000Z,27.8
2019-03-16T05:53:24.000Z,27.8
2019-03-16T05:55:24.000Z,27.8
2019-03-16T05:57:24.000Z,27.8
2019-03-16T05:58:24.000Z,27.7
2019-03-16T05:59:24.000Z,27.8
2019-03-16T06:01:24.000Z,27.8
2019-03-16T06:02:24.000Z,27.8
2019-03-16T06:03:24.000Z,27.8
2019-03-16T06:05:09.000Z,27.9
2019-03-16T06:48:45.000Z,25.6
2019-03-16T06:50:30.000Z,25.9
2019-03-16T06:51:45.000Z,26
2019-03-16T06:53:30.000Z,26.3
2019-03-16T06:55:45.000Z,26.5
2019-03-16T06:56:45.000Z,26.6
2019-03-16T06:58:30.000Z,26.8
2019-03-16T06:59:45.000Z,26.9
2019-03-16T07:00:45.000Z,27
2019-03-16T07:01:45.000Z,27.2
2019-03-16T07:03:45.000Z,27.4
2019-03-16T07:04:45.000Z,27.4
2019-03-16T07:06:45.000Z,27.5
2019-03-16T07:07:45.000Z,27.5
2019-03-16T07:08:45.000Z,27.6
2019-03-16T07:09:45.000Z,27.7
2019-03-16T07:11:45.000Z,27.7
2019-03-16T07:12:45.000Z,27.7
2019-03-16T07:14:45.000Z,27.7
2019-03-16T07:15:45.000Z,27.8
2019-03-16T07:16:45.000Z,27.8
2019-03-16T07:18:45.000Z,27.7
2019-03-16T07:20:45.000Z,27.5
2019-03-16T07:22:45.000Z,27.4
2019-03-16T07:24:45.000Z,27.3
2019-03-16T07:26:45.000Z,27.3
2019-03-16T07:28:45.000Z,27.4
2019-03-16T07:30:45.000Z,27.4
2019-03-16T07:32:30.000Z,27.4
2019-03-16T07:33:45.000Z,27.4
2019-03-16T07:35:30.000Z,27.5
2019-03-16T07:36:45.000Z,27.4
2019-03-16T07:37:45.000Z,27.4
2019-03-16T07:38:45.000Z,27.5
2019-03-16T07:40:45.000Z,27.6
2019-03-16T07:41:45.000Z,27.7
2019-03-16T07:43:45.000Z,27.7
2019-03-16T07:45:45.000Z,27.7
2019-03-16T07:47:45.000Z,27.6
2019-03-16T07:49:45.000Z,27.5
2019-03-16T07:50:45.000Z,27.5
2019-03-16T07:52:45.000Z,27.6
2019-03-16T07:53:45.000Z,27.6
2019-03-16T07:55:45.000Z,27.6
2019-03-16T07:56:45.000Z,27.6
2019-03-16T07:58:45.000Z,27.6
2019-03-16T07:59:45.000Z,27.7
2019-03-16T08:00:45.000Z,27.7
2019-03-16T08:02:45.000Z,27.8
2019-03-16T08:04:45.000Z,27.7
2019-03-16T08:05:45.000Z,27.7
2019-03-16T08:07:45.000Z,27.7
2019-03-16T08:09:45.000Z,27.7
2019-03-16T08:10:45.000Z,27.6
2019-03-16T08:11:45.000Z,27.7
2019-03-16T08:13:30.000Z,27.7
2019-03-16T08:14:45.000Z,27.7
2019-03-16T08:16:30.000Z,27.7
2019-03-16T08:17:45.000Z,27.7
2019-03-16T08:19:30.000Z,27.8
2019-03-16T08:20:30.000Z,27.8
2019-03-16T08:21:45.000Z,27.7
2019-03-16T08:22:45.000Z,27.7
2019-03-16T08:24:45.000Z,27.7
2019-03-16T08:26:45.000Z,27.8
2019-03-16T08:27:45.000Z,27.8
2019-03-16T08:29:30.000Z,27.8
2019-03-16T08:30:45.000Z,27.9
2019-03-16T08:31:45.000Z,27.9
2019-03-16T08:33:45.000Z,28
2019-03-16T08:34:45.000Z,28
2019-03-16T08:36:45.000Z,28.1
2019-03-16T08:38:45.000Z,28.1
2019-03-16T08:40:45.000Z,28.1
2019-03-16T08:41:45.000Z,28.1
2019-03-16T08:42:45.000Z,28.1
2019-03-16T08:44:30.000Z,28.2
2019-03-16T08:45:45.000Z,28.2
2019-03-16T08:47:30.000Z,28.2
2019-03-16T08:48:45.000Z,28.1
2019-03-16T08:49:45.000Z,28
2019-03-16T08:51:45.000Z,28
2019-03-16T08:53:45.000Z,28
2019-03-16T08:54:45.000Z,28
2019-03-16T08:55:45.000Z,28.1
2019-03-16T08:56:45.000Z,28.2
2019-03-16T08:58:45.000Z,28.2
2019-03-16T08:59:45.000Z,28.3
2019-03-16T09:00:45.000Z,28.3
2019-03-16T09:02:45.000Z,28.4
2019-03-16T09:04:45.000Z,28.3
2019-03-16T09:06:45.000Z,28.2
2019-03-16T09:07:45.000Z,28.2
2019-03-16T09:09:45.000Z,28.2
2019-03-16T09:10:45.000Z,28.2
2019-03-16T09:12:45.000Z,28.3
2019-03-16T09:14:45.000Z,28.1
2019-03-16T09:16:45.000Z,28.1
2019-03-16T09:18:30.000Z,28.1
2019-03-16T09:19:45.000Z,28
2019-03-16T09:20:45.000Z,28
2019-03-16T09:22:45.000Z,28.1
2019-03-16T09:23:45.000Z,28.1
2019-03-16T09:24:45.000Z,28.2
2019-03-16T09:26:45.000Z,28.3
2019-03-16T09:28:45.000Z,28.2
2019-03-16T09:29:45.000Z,28.2
2019-03-16T09:30:45.000Z,28.2
2019-03-16T09:31:45.000Z,28.3
2019-03-16T09:33:29.000Z,28.3
2019-03-16T09:34:44.000Z,28.3
2019-03-16T09:36:29.000Z,28.3
2019-03-16T09:37:44.000Z,28.3
2019-03-16T09:38:44.000Z,28.3
2019-03-16T09:40:29.000Z,28.4
2019-03-16T09:41:44.000Z,28.4
2019-03-16T09:43:44.000Z,28.3
2019-03-16T09:45:44.000Z,28.2
2019-03-16T09:46:44.000Z,28.2
2019-03-16T09:48:44.000Z,28.2
2019-03-16T09:50:44.000Z,28.2
2019-03-16T09:51:44.000Z,28.2
2019-03-16T09:52:44.000Z,28.2
2019-03-16T09:54:44.000Z,28.2
2019-03-16T09:55:44.000Z,28.2
2019-03-16T09:56:44.000Z,28.2
2019-03-16T09:58:29.000Z,28.1
2019-03-16T09:59:44.000Z,28
2019-03-16T10:00:44.000Z,28
2019-03-16T10:01:44.000Z,28
2019-03-16T10:03:44.000Z,28.1
2019-03-16T10:04:44.000Z,28.1
2019-03-16T10:06:44.000Z,28.1
2019-03-16T10:08:44.000Z,28.1
2019-03-16T10:09:44.000Z,28.1
2019-03-16T10:11:44.000Z,28.2
2019-03-16T10:13:44.000Z,28.2
2019-03-16T10:15:44.000Z,28.2
2019-03-16T10:53:24.000Z,26.4
2019-03-16T10:54:24.000Z,26.6
2019-03-16T10:56:24.000Z,27
2019-03-16T10:57:24.000Z,27.2
2019-03-16T10:59:09.000Z,27.6
2019-03-16T11:00:24.000Z,27.7
2019-03-16T11:02:24.000Z,28
2019-03-16T11:04:24.000Z,28.1
2019-03-16T11:06:09.000Z,28.1
2019-03-16T11:07:24.000Z,28.1
2019-03-16T11:09:24.000Z,28.3
2019-03-16T11:11:24.000Z,28.3
2019-03-16T11:12:24.000Z,28.3
2019-03-16T11:13:24.000Z,28.4
2019-03-16T11:15:24.000Z,28.5
2019-03-16T11:17:24.000Z,28.5
2019-03-16T11:19:24.000Z,28.4
2019-03-16T11:20:24.000Z,28.4
2019-03-16T11:21:24.000Z,28.5
2019-03-16T11:23:24.000Z,28.5
2019-03-16T11:24:24.000Z,28.5
2019-03-16T11:26:09.000Z,28.5
2019-03-16T11:27:24.000Z,28.5
2019-03-16T11:29:24.000Z,28.4
2019-03-16T11:30:24.000Z,28.5
2019-03-16T11:32:24.000Z,28.5
2019-03-16T11:34:24.000Z,28.5
2019-03-16T11:35:24.000Z,28.5
2019-03-16T11:37:24.000Z,28.4
2019-03-16T11:38:24.000Z,28.4
2019-03-16T11:40:24.000Z,28.5
2019-03-16T11:41:24.000Z,28.5
2019-03-16T11:42:24.000Z,28.5
2019-03-16T11:44:24.000Z,28.5
2019-03-16T11:45:24.000Z,28.5
2019-03-16T11:47:09.000Z,28.5
2019-03-16T11:48:24.000Z,28.4
2019-03-16T11:49:24.000Z,28.3
2019-03-16T11:51:24.000Z,28.3
2019-03-16T11:53:24.000Z,28.2
2019-03-16T11:54:24.000Z,28.2
2019-03-16T11:55:24.000Z,28.2
2019-03-16T11:57:24.000Z,28.2
2019-03-16T11:58:24.000Z,28.2
2019-03-16T12:00:24.000Z,28.2
2019-03-16T12:02:24.000Z,28.1
2019-03-16T12:04:24.000Z,28
2019-03-16T12:06:24.000Z,28
2019-03-16T12:08:24.000Z,28.1
2019-03-16T12:09:24.000Z,28.1
2019-03-16T12:10:24.000Z,28.2
2019-03-16T12:11:24.000Z,28.3
2019-03-16T12:12:24.000Z,28.4
2019-03-16T12:14:24.000Z,28.4
2019-03-16T12:15:24.000Z,28.4
2019-03-16T12:17:24.000Z,28.3
2019-03-16T12:19:24.000Z,28.3
2019-03-16T12:21:24.000Z,28.2
2019-03-16T12:22:24.000Z,28.2
2019-03-16T12:24:24.000Z,28.3
2019-03-16T12:25:24.000Z,28.3
2019-03-16T12:27:24.000Z,28.3
2019-03-16T12:29:24.000Z,28.2
2019-03-16T12:31:24.000Z,28
2019-03-16T12:33:24.000Z,28.1
2019-03-16T12:34:24.000Z,28.1
2019-03-16T12:35:24.000Z,28.2
2019-03-16T12:36:24.000Z,28.3
2019-03-16T12:38:24.000Z,28.3
2019-03-16T12:39:24.000Z,28.3
2019-03-16T12:40:24.000Z,28.3
2019-03-16T12:42:24.000Z,28.3
2019-03-16T12:44:24.000Z,28.3
2019-03-16T12:46:24.000Z,28.3
2019-03-16T12:48:24.000Z,28.3
2019-03-16T12:50:09.000Z,28.3
2019-03-16T12:51:24.000Z,28.2
2019-03-16T12:52:24.000Z,28.3
2019-03-16T12:54:24.000Z,28.2
2019-03-16T12:55:24.000Z,28.2
2019-03-16T12:56:24.000Z,28.2
2019-03-16T12:58:24.000Z,28.2
2019-03-16T13:00:24.000Z,28.2
2019-03-16T13:02:24.000Z,28
2019-03-16T13:04:24.000Z,27.9
2019-03-16T13:06:24.000Z,27.9
2019-03-16T13:07:24.000Z,27.9
2019-03-16T13:09:24.000Z,28
2019-03-16T13:11:24.000Z,28
2019-03-16T13:12:24.000Z,28
2019-03-16T13:13:24.000Z,28
2019-03-16T13:15:24.000Z,28.1
2019-03-16T13:17:24.000Z,28
2019-03-16T13:19:09.000Z,28
2019-03-16T13:20:24.000Z,27.9
2019-03-16T13:21:24.000Z,27.9
2019-03-16T13:23:24.000Z,27.8
2019-03-16T13:24:24.000Z,27.9
2019-03-16T13:26:24.000Z,28
2019-03-16T13:27:24.000Z,28
2019-03-16T13:29:24.000Z,28
2019-03-16T13:31:24.000Z,28
2019-03-16T13:32:24.000Z,28
2019-03-16T13:34:24.000Z,27.9
2019-03-16T13:35:24.000Z,27.9
2019-03-16T13:37:24.000Z,27.9
2019-03-16T13:38:24.000Z,28
2019-03-16T13:39:24.000Z,28
2019-03-16T13:41:24.000Z,27.8
2019-03-16T13:42:24.000Z,27.8
2019-03-16T13:43:24.000Z,27.8
2019-03-16T13:44:24.000Z,27.9
2019-03-16T13:45:24.000Z,28
2019-03-16T13:47:24.000Z,28
2019-03-16T13:49:24.000Z,27.8
2019-03-16T13:51:09.000Z,27.7
2019-03-16T13:52:09.000Z,27.6
2019-03-16T13:53:24.000Z,27.5
2019-03-16T13:55:24.000Z,27.3
2019-03-16T13:56:24.000Z,27.4
2019-03-16T13:58:24.000Z,27.4
2019-03-16T14:00:09.000Z,27.4
2019-03-16T14:01:24.000Z,27.3
2019-03-16T14:03:24.000Z,27.3
2019-03-16T14:05:10.000Z,27.2
2019-03-16T14:06:24.000Z,27.1
2019-03-16T14:08:09.000Z,27
2019-03-16T14:09:09.000Z,26.9
2019-03-16T14:10:24.000Z,26.8
2019-03-16T14:11:24.000Z,26.9
2019-03-16T14:13:09.000Z,27
2019-03-16T14:14:24.000Z,27
2019-03-16T14:16:24.000Z,27.1
2019-03-16T14:17:24.000Z,27.1
2019-03-16T14:19:09.000Z,27.2
2019-03-16T14:20:24.000Z,27.2
2019-03-16T14:22:24.000Z,27.1
2019-03-16T14:24:24.000Z,27.1
2019-03-16T14:26:24.000Z,27
2019-03-16T14:28:24.000Z,26.9
2019-03-16T14:30:24.000Z,26.8
2019-03-16T14:32:24.000Z,26.8
2019-03-16T14:34:24.000Z,26.9
2019-03-16T14:36:09.000Z,27
2019-03-16T14:37:24.000Z,27
2019-03-16T14:39:24.000Z,27
2019-03-16T14:41:24.000Z,27
2019-03-16T14:42:24.000Z,27
2019-03-16T14:44:24.000Z,27
2019-03-16T14:45:24.000Z,27
2019-03-16T14:47:09.000Z,27.2
2019-03-16T14:48:24.000Z,27.2
2019-03-16T14:49:24.000Z,27.1
2019-03-16T14:51:25.000Z,27.2
2019-03-16T14:53:25.000Z,27.2
2019-03-16T14:55:25.000Z,27.3
2019-03-16T14:57:25.000Z,27.5
2019-03-16T14:59:25.000Z,27.6
2019-03-16T15:01:10.000Z,27.7
2019-03-16T15:02:25.000Z,27.6
2019-03-16T15:03:25.000Z,27.6
2019-03-16T15:05:25.000Z,27.7
2019-03-16T15:07:25.000Z,27.8
2019-03-16T15:08:25.000Z,27.9
2019-03-16T15:09:25.000Z,28
2019-03-16T15:11:25.000Z,28
2019-03-16T15:12:25.000Z,28
2019-03-16T15:14:10.000Z,28.1
2019-03-16T15:15:25.000Z,28
2019-03-16T15:16:25.000Z,27.9
2019-03-16T15:17:25.000Z,27.9
2019-03-16T15:19:25.000Z,27.9
2019-03-16T15:21:25.000Z,27.9
2019-03-16T15:23:25.000Z,27.9
2019-03-16T15:25:10.000Z,27.8
2019-03-16T15:26:25.000Z,27.7
2019-03-16T15:27:25.000Z,27.7
2019-03-16T15:28:25.000Z,27.7
2019-03-16T15:29:25.000Z,27.8
2019-03-16T15:30:25.000Z,27.9
2019-03-16T15:32:25.000Z,27.9
2019-03-16T15:34:25.000Z,27.9
2019-03-16T15:35:25.000Z,27.9
2019-03-16T15:37:25.000Z,28
2019-03-16T15:39:25.000Z,28
2019-03-16T15:41:25.000Z,28
2019-03-16T15:42:25.000Z,28
2019-03-16T15:44:25.000Z,28
2019-03-16T15:46:25.000Z,28
2019-03-16T15:48:25.000Z,28
2019-03-16T15:49:25.000Z,28
2019-03-16T15:50:25.000Z,28
2019-03-16T15:52:25.000Z,28.1
2019-03-16T15:53:25.000Z,28.1
2019-03-16T15:55:09.000Z,28.2
2019-03-16T15:57:24.000Z,28
2019-03-16T15:59:24.000Z,27.8
2019-03-16T16:01:24.000Z,27.8
2019-03-16T16:03:09.000Z,27.8
2019-03-16T16:04:24.000Z,27.8
2019-03-16T16:06:24.000Z,27.8
2019-03-16T16:08:24.000Z,27.8
2019-03-16T16:09:24.000Z,27.8
2019-03-16T16:11:24.000Z,27.9
2019-03-16T16:13:09.000Z,28
2019-03-16T16:14:24.000Z,28
2019-03-16T16:15:24.000Z,28
2019-03-16T16:17:24.000Z,28
2019-03-16T16:19:09.000Z,28
2019-03-16T16:20:24.000Z,27.9
2019-03-16T16:22:24.000Z,27.9
2019-03-16T16:24:24.000Z,27.8
2019-03-16T16:25:24.000Z,27.8
2019-03-16T16:27:24.000Z,27.8
2019-03-16T16:29:09.000Z,27.9
2019-03-16T16:30:24.000Z,27.9
2019-03-16T16:32:24.000Z,27.8
2019-03-16T16:34:24.000Z,27.7
2019-03-16T16:35:24.000Z,27.7
2019-03-16T16:37:24.000Z,27.8
2019-03-16T16:38:24.000Z,27.8
2019-03-16T16:40:24.000Z,27.9
2019-03-16T16:41:24.000Z,27.9
2019-03-16T16:43:24.000Z,27.8
2019-03-16T16:45:24.000Z,27.8
2019-03-16T16:46:24.000Z,27.8
2019-03-16T16:48:24.000Z,27.9
2019-03-16T16:50:24.000Z,27.8
2019-03-16T16:52:24.000Z,27.7
2019-03-16T16:54:24.000Z,27.7
2019-03-16T16:55:24.000Z,27.7
2019-03-16T16:56:24.000Z,27.7
2019-03-16T16:58:09.000Z,27.8
2019-03-16T16:59:24.000Z,27.7
2019-03-16T17:01:09.000Z,27.7
2019-03-16T17:02:24.000Z,27.6
2019-03-16T17:03:24.000Z,27.6
2019-03-16T17:04:24.000Z,27.6
2019-03-16T17:06:24.000Z,27.7
2019-03-16T17:07:24.000Z,27.7
2019-03-16T17:09:24.000Z,27.7
2019-03-16T17:11:24.000Z,27.7
2019-03-16T17:13:24.000Z,27.5
2019-03-16T17:15:24.000Z,27.4
2019-03-16T17:17:24.000Z,27.4
2019-03-16T17:19:24.000Z,27.3
2019-03-16T17:21:24.000Z,27.2
2019-03-16T17:23:24.000Z,27.1
2019-03-16T17:24:24.000Z,27.2
2019-03-16T17:26:24.000Z,27.3
2019-03-16T17:28:24.000Z,27.3
2019-03-16T17:29:24.000Z,27.4
2019-03-16T17:31:24.000Z,27.4
2019-03-16T17:33:24.000Z,27.3
2019-03-16T17:35:09.000Z,27.3
2019-03-16T17:36:24.000Z,27.3
2019-03-16T17:38:24.000Z,27.3
2019-03-16T17:40:24.000Z,27.3
2019-03-16T17:41:24.000Z,27.4
2019-03-16T17:43:24.000Z,27.4
2019-03-16T17:44:24.000Z,27.5
2019-03-16T17:45:24.000Z,27.5
2019-03-16T17:47:24.000Z,27.5
2019-03-16T17:48:24.000Z,27.5
2019-03-16T17:50:24.000Z,27.5
2019-03-16T17:52:09.000Z,27.5
2019-03-16T17:53:24.000Z,27.4
2019-03-16T17:55:24.000Z,27.4
2019-03-16T17:57:24.000Z,27.3
2019-03-16T17:58:24.000Z,27.2
2019-03-16T18:00:24.000Z,27.3
2019-03-16T18:02:24.000Z,27.3
2019-03-16T18:04:25.000Z,27.3
2019-03-16T18:06:25.000Z,27.1
2019-03-16T18:07:25.000Z,27.1
2019-03-16T18:08:25.000Z,27.1
2019-03-16T18:10:25.000Z,27.2
2019-03-16T18:12:25.000Z,27.3
2019-03-16T18:14:25.000Z,27.2
2019-03-16T18:16:25.000Z,27.1
2019-03-16T18:17:25.000Z,27.2
2019-03-16T18:19:25.000Z,27.2
2019-03-16T18:21:10.000Z,27.3
2019-03-16T18:22:25.000Z,27.3
2019-03-16T18:24:25.000Z,27.3
2019-03-16T18:26:25.000Z,27.3
2019-03-16T18:27:25.000Z,27.3
2019-03-16T18:28:25.000Z,27.4
2019-03-16T18:30:25.000Z,27.4
2019-03-16T18:31:25.000Z,27.4
2019-03-16T18:32:25.000Z,27.5
2019-03-16T18:33:25.000Z,27.5
2019-03-16T18:35:25.000Z,27.5
2019-03-16T18:37:25.000Z,27.5
2019-03-16T18:38:25.000Z,27.4
2019-03-16T18:40:10.000Z,27.5
2019-03-16T18:41:25.000Z,27.4
2019-03-16T18:43:25.000Z,27.4
2019-03-16T18:45:25.000Z,27.4
2019-03-16T18:46:25.000Z,27.4
2019-03-16T18:48:25.000Z,27.4
2019-03-16T18:50:25.000Z,27.4
2019-03-16T18:52:10.000Z,27.3
2019-03-16T18:53:25.000Z,27.3
2019-03-16T18:54:25.000Z,27.3
2019-03-16T18:56:25.000Z,27.3
2019-03-16T18:57:25.000Z,27.3
2019-03-16T18:58:25.000Z,27.3
2019-03-16T19:00:25.000Z,27.2
2019-03-16T19:02:20.000Z,27.1
2019-03-16T19:04:25.000Z,26.8
2019-03-16T19:06:10.000Z,26.8
2019-03-16T19:07:25.000Z,26.8
2019-03-16T19:08:25.000Z,26.9
2019-03-16T19:10:25.000Z,27
2019-03-16T19:12:10.000Z,27.1
2019-03-16T19:13:25.000Z,27.1
2019-03-16T19:15:25.000Z,27.2
2019-03-16T19:16:25.000Z,27.2
2019-03-16T19:17:25.000Z,27.3
2019-03-16T19:19:25.000Z,27.4
2019-03-16T19:20:25.000Z,27.4
2019-03-16T19:22:10.000Z,27.5
2019-03-16T19:23:10.000Z,27.4
2019-03-16T19:24:25.000Z,27.2
2019-03-16T19:25:25.000Z,27.1
2019-03-16T19:27:25.000Z,27
2019-03-16T19:28:25.000Z,27.1
2019-03-16T19:30:25.000Z,27.1
2019-03-16T19:32:25.000Z,27.1
2019-03-16T19:34:25.000Z,27
2019-03-16T19:36:25.000Z,27
2019-03-16T19:38:10.000Z,27
2019-03-16T19:39:25.000Z,26.9
2019-03-16T19:40:25.000Z,26.9
2019-03-16T19:41:25.000Z,27
2019-03-16T19:43:25.000Z,27
2019-03-16T19:45:25.000Z,27.1
2019-03-16T19:47:10.000Z,27.1
2019-03-16T19:48:25.000Z,27.1
2019-03-16T19:50:25.000Z,27.1
2019-03-16T19:51:25.000Z,27.2
2019-03-16T19:53:25.000Z,27.3
2019-03-16T19:54:25.000Z,27.3
2019-03-16T19:55:25.000Z,27.4
2019-03-16T19:57:10.000Z,27.5
2019-03-16T19:58:25.000Z,27.3
2019-03-16T19:59:25.000Z,27.3
2019-03-16T20:00:25.000Z,27.3
2019-03-16T20:01:25.000Z,27.3
2019-03-16T20:03:10.000Z,27.4
2019-03-16T20:04:25.000Z,27.4
2019-03-16T20:06:25.000Z,27.2
2019-03-16T20:08:25.000Z,26.9
2019-03-16T20:09:25.000Z,26.9
2019-03-16T20:11:25.000Z,26.9
2019-03-16T20:13:25.000Z,26.9
2019-03-16T20:14:25.000Z,26.9
2019-03-16T20:16:10.000Z,27
2019-03-16T20:17:25.000Z,27
2019-03-16T20:19:25.000Z,27.1
2019-03-16T20:21:25.000Z,27
2019-03-16T20:23:25.000Z,27
2019-03-16T20:24:25.000Z,27
2019-03-16T20:25:25.000Z,27
2019-03-16T20:27:25.000Z,27.1
2019-03-16T20:29:25.000Z,27
2019-03-16T20:30:25.000Z,27.1
2019-03-16T20:32:25.000Z,27
2019-03-16T20:34:25.000Z,27.1
2019-03-16T20:35:25.000Z,27.1
2019-03-16T20:37:25.000Z,27.2
2019-03-16T20:39:25.000Z,27.1
2019-03-16T20:41:25.000Z,27
2019-03-16T20:43:25.000Z,26.9
2019-03-16T20:45:10.000Z,26.8
2019-03-16T20:46:25.000Z,26.7
2019-03-16T20:47:25.000Z,26.7
2019-03-16T20:48:25.000Z,26.8
2019-03-16T20:50:25.000Z,26.9
2019-03-16T20:51:25.000Z,27
2019-03-16T20:53:25.000Z,27.1
2019-03-16T20:54:25.000Z,27.2
2019-03-16T20:56:25.000Z,27.2
2019-03-16T20:58:25.000Z,27.1
2019-03-16T20:59:25.000Z,27.1
2019-03-16T21:00:25.000Z,27.1
2019-03-16T21:02:25.000Z,27.1
2019-03-16T21:04:25.000Z,27
2019-03-16T21:05:25.000Z,27
2019-03-16T21:07:25.000Z,27
2019-03-16T21:08:25.000Z,27
2019-03-16T21:10:25.000Z,27.1
2019-03-16T21:12:25.000Z,27
2019-03-16T21:14:25.000Z,27.1
2019-03-16T21:15:25.000Z,27.1
2019-03-16T21:17:25.000Z,27.1
2019-03-16T21:18:25.000Z,27.2
2019-03-16T21:20:25.000Z,27.3
2019-03-16T21:22:25.000Z,27.2
2019-03-16T21:24:25.000Z,27
2019-03-16T21:25:25.000Z,27
2019-03-16T21:26:25.000Z,27
2019-03-16T21:27:25.000Z,27.1
2019-03-16T21:29:25.000Z,27.2
2019-03-16T21:31:25.000Z,27
2019-03-16T21:32:25.000Z,27
2019-03-16T21:33:25.000Z,27.1
2019-03-16T21:35:25.000Z,27
2019-03-16T21:37:25.000Z,27
2019-03-16T21:38:25.000Z,27
2019-03-16T21:40:25.000Z,27
2019-03-16T21:42:25.000Z,27.1
2019-03-16T21:43:25.000Z,27.1
2019-03-16T21:44:25.000Z,27.2
2019-03-16T21:46:09.000Z,27.2
2019-03-16T21:47:25.000Z,27.2
2019-03-16T21:49:25.000Z,27.2
2019-03-16T21:51:25.000Z,27.2
2019-03-16T21:53:25.000Z,27.2
2019-03-16T21:55:25.000Z,27.2
2019-03-16T21:56:25.000Z,27.2
2019-03-16T21:58:25.000Z,27.1
2019-03-16T21:59:25.000Z,27.1
2019-03-16T22:01:09.000Z,27
2019-03-16T22:02:25.000Z,27
2019-03-16T22:04:25.000Z,27
2019-03-16T22:06:25.000Z,27.1
2019-03-16T22:07:25.000Z,27.1
2019-03-16T22:08:25.000Z,27.1
2019-03-16T22:10:09.000Z,27.2
2019-03-16T22:11:25.000Z,27.2
2019-03-16T22:13:25.000Z,27.1
2019-03-16T22:14:25.000Z,27.2
2019-03-16T22:15:25.000Z,27.2
2019-03-16T22:17:25.000Z,27.1
2019-03-16T22:18:25.000Z,27.1
2019-03-16T22:20:25.000Z,27.2
2019-03-16T22:22:25.000Z,27.2
2019-03-16T22:24:25.000Z,27.1
2019-03-16T22:26:25.000Z,27